createdAt,value
2023-04-10T00:00:58.048Z,3.94
2023-04-10T00:01:57.961Z,4.00
2023-04-10T00:02:58.063Z,3.94
2023-04-10T00:03:58.293Z,3.97
2023-04-10T00:04:57.922Z,4.00
2023-04-10T00:05:57.904Z,4.02
2023-04-10T00:06:57.904Z,3.96
2023-04-10T00:07:57.910Z,3.91
2023-04-10T00:08:57.939Z,3.98
2023-04-10T00:09:57.921Z,3.87
2023-04-10T00:10:57.931Z,3.87
2023-04-10T00:11:57.940Z,3.80
2023-04-10T00:12:57.945Z,3.80
2023-04-10T00:13:57.945Z,3.88
2023-04-10T00:14:57.960Z,3.86
2023-04-10T00:15:57.964Z,3.84
2023-04-10T00:16:58.024Z,3.83
2023-04-10T00:17:58.044Z,3.79
2023-04-10T00:18:57.992Z,3.84
2023-04-10T00:19:57.994Z,3.87
2023-04-10T00:20:58.020Z,3.90
2023-04-10T00:21:58.035Z,3.84
2023-04-10T00:22:58.017Z,3.84
2023-04-10T00:23:58.018Z,3.86
2023-04-10T00:24:58.048Z,3.79
2023-04-10T00:25:58.040Z,3.66
2023-04-10T00:26:58.053Z,3.73
2023-04-10T00:27:58.049Z,3.69
2023-04-10T00:28:58.064Z,3.62
2023-04-10T00:29:58.081Z,3.68
2023-04-10T00:30:58.071Z,3.61
2023-04-10T00:31:58.210Z,3.69
2023-04-10T00:32:58.117Z,3.61
2023-04-10T00:33:58.094Z,3.68
2023-04-10T00:34:58.102Z,3.62
2023-04-10T00:35:58.112Z,3.62
2023-04-10T00:36:58.129Z,3.68
2023-04-10T00:37:58.118Z,3.62
2023-04-10T00:38:58.130Z,3.62
2023-04-10T00:39:58.138Z,3.66
2023-04-10T00:40:58.172Z,3.66
2023-04-10T00:41:58.147Z,3.72
2023-04-10T00:42:58.157Z,3.65
2023-04-10T00:43:58.164Z,3.69
2023-04-10T00:44:58.177Z,3.66
2023-04-10T00:45:58.229Z,3.68
2023-04-10T00:46:58.188Z,3.66
2023-04-10T00:47:58.234Z,3.62
2023-04-10T00:48:58.203Z,3.65
2023-04-10T00:49:58.205Z,3.61
2023-04-10T00:50:58.223Z,3.61
2023-04-10T00:51:58.711Z,3.55
2023-04-10T00:52:58.227Z,3.65
2023-04-10T00:53:58.231Z,3.68
2023-04-10T00:54:58.240Z,3.70
2023-04-10T00:55:58.249Z,3.66
2023-04-10T00:56:58.279Z,3.69
2023-04-10T00:57:58.258Z,3.69
2023-04-10T00:58:58.295Z,3.66
2023-04-10T00:59:58.274Z,3.62
2023-04-10T01:00:58.321Z,3.68
2023-04-10T01:01:58.362Z,3.58
2023-04-10T01:02:58.397Z,3.65
2023-04-10T01:03:58.930Z,3.68
2023-04-10T01:04:58.311Z,3.66
2023-04-10T01:05:58.318Z,3.66
2023-04-10T01:06:58.342Z,3.66
2023-04-10T01:07:58.331Z,3.55
2023-04-10T01:08:58.339Z,3.52
2023-04-10T01:09:58.360Z,3.58
2023-04-10T01:10:58.361Z,3.52
2023-04-10T01:11:58.356Z,3.51
2023-04-10T01:12:58.389Z,3.55
2023-04-10T01:13:58.376Z,3.55
2023-04-10T01:14:58.383Z,3.48
2023-04-10T01:15:58.387Z,3.52
2023-04-10T01:16:58.449Z,3.45
2023-04-10T01:17:58.425Z,3.32
2023-04-10T01:18:58.408Z,3.39
2023-04-10T01:19:58.409Z,3.35
2023-04-10T01:20:58.422Z,3.45
2023-04-10T01:21:58.426Z,3.32
2023-04-10T01:22:58.438Z,3.33
2023-04-10T01:23:58.436Z,3.33
2023-04-10T01:24:58.448Z,3.36
2023-04-10T01:25:58.461Z,3.39
2023-04-10T01:26:58.469Z,3.24
2023-04-10T01:27:58.463Z,3.21
2023-04-10T01:28:58.497Z,3.23
2023-04-10T01:29:58.479Z,3.20
2023-04-10T01:30:58.513Z,3.18
2023-04-10T01:31:58.504Z,3.17
2023-04-10T01:32:58.533Z,3.29
2023-04-10T01:33:58.512Z,3.14
2023-04-10T01:34:58.517Z,3.26
2023-04-10T01:35:58.546Z,3.20
2023-04-10T01:36:58.528Z,3.26
2023-04-10T01:37:58.530Z,3.21
2023-04-10T01:38:58.574Z,3.13
2023-04-10T01:39:58.548Z,3.08
2023-04-10T01:40:58.562Z,3.11
2023-04-10T01:41:58.564Z,3.24
2023-04-10T01:42:58.574Z,3.18
2023-04-10T01:43:58.583Z,3.18
2023-04-10T01:44:58.605Z,3.21
2023-04-10T01:45:58.696Z,3.26
2023-04-10T01:46:58.623Z,3.23
2023-04-10T01:47:58.676Z,3.23
2023-04-10T01:48:58.608Z,3.20
2023-04-10T01:49:58.617Z,3.23
2023-04-10T01:50:58.626Z,3.23
2023-04-10T01:51:58.623Z,3.31
2023-04-10T01:52:58.632Z,3.28
2023-04-10T01:53:58.638Z,3.21
2023-04-10T01:54:58.645Z,3.24
2023-04-10T01:55:58.670Z,3.29
2023-04-10T01:56:58.666Z,3.26
2023-04-10T01:57:58.670Z,3.24
2023-04-10T01:58:58.677Z,3.15
2023-04-10T01:59:58.688Z,3.18
2023-04-10T02:00:58.913Z,3.26
2023-04-10T02:01:58.793Z,3.18
2023-04-10T02:02:58.844Z,3.21
2023-04-10T02:03:58.910Z,3.08
2023-04-10T02:04:58.766Z,3.15
2023-04-10T02:05:58.716Z,3.14
2023-04-10T02:06:58.725Z,3.05
2023-04-10T02:07:58.732Z,3.13
2023-04-10T02:08:58.740Z,3.13
2023-04-10T02:09:58.745Z,3.06
2023-04-10T02:10:58.752Z,3.13
2023-04-10T02:11:58.755Z,3.14
2023-04-10T02:12:58.762Z,3.15
2023-04-10T02:13:58.765Z,3.10
2023-04-10T02:14:58.775Z,3.17
2023-04-10T02:15:58.903Z,3.18
2023-04-10T02:16:58.812Z,3.13
2023-04-10T02:17:58.904Z,3.13
2023-04-10T02:18:58.799Z,3.15
2023-04-10T02:19:58.804Z,3.06
2023-04-10T02:20:58.829Z,3.15
2023-04-10T02:21:58.827Z,3.05
2023-04-10T02:22:58.825Z,3.13
2023-04-10T02:23:58.829Z,3.14
2023-04-10T02:24:58.837Z,3.10
2023-04-10T02:25:58.843Z,3.10
2023-04-10T02:26:58.863Z,3.11
2023-04-10T02:27:58.869Z,3.13
2023-04-10T02:28:58.868Z,3.05
2023-04-10T02:29:58.933Z,3.15
2023-04-10T02:30:58.901Z,3.06
2023-04-10T02:31:58.879Z,3.18
2023-04-10T02:32:58.956Z,3.11
2023-04-10T02:33:58.892Z,3.23
2023-04-10T02:34:58.901Z,3.18
2023-04-10T02:35:58.970Z,3.15
2023-04-10T02:36:58.929Z,3.14
2023-04-10T02:37:58.928Z,3.17
2023-04-10T02:38:58.938Z,3.17
2023-04-10T02:39:58.933Z,3.06
2023-04-10T02:40:58.946Z,3.14
2023-04-10T02:41:58.941Z,3.10
2023-04-10T02:42:58.954Z,3.05
2023-04-10T02:43:58.957Z,3.18
2023-04-10T02:44:58.966Z,3.05
2023-04-10T02:45:58.968Z,3.03
2023-04-10T02:46:58.990Z,3.08
2023-04-10T02:47:59.092Z,3.05
2023-04-10T02:48:59.013Z,3.03
2023-04-10T02:49:58.995Z,3.10
2023-04-10T02:50:59.012Z,3.06
2023-04-10T02:51:59.009Z,3.10
2023-04-10T02:52:59.016Z,3.02
2023-04-10T02:53:59.022Z,3.08
2023-04-10T02:54:59.035Z,3.08
2023-04-10T02:55:59.036Z,3.03
2023-04-10T02:56:59.046Z,3.03
2023-04-10T02:57:59.068Z,3.02
2023-04-10T02:58:59.056Z,3.02
2023-04-10T02:59:59.071Z,3.08
2023-04-10T03:00:59.077Z,3.03
2023-04-10T03:01:59.116Z,3.05
2023-04-10T03:02:59.216Z,3.10
2023-04-10T03:03:59.147Z,3.10
2023-04-10T03:04:59.197Z,3.08
2023-04-10T03:05:59.099Z,3.00
2023-04-10T03:06:59.112Z,3.08
2023-04-10T03:07:59.118Z,3.00
2023-04-10T03:08:59.178Z,3.05
2023-04-10T03:09:59.124Z,3.03
2023-04-10T03:10:59.155Z,3.05
2023-04-10T03:11:59.152Z,3.05
2023-04-10T03:12:59.151Z,3.10
2023-04-10T03:13:59.151Z,3.05
2023-04-10T03:14:59.162Z,3.05
2023-04-10T03:15:59.235Z,3.03
2023-04-10T03:16:59.206Z,3.03
2023-04-10T03:17:59.201Z,3.08
2023-04-10T03:18:59.200Z,2.99
2023-04-10T03:19:59.194Z,2.99
2023-04-10T03:20:59.225Z,3.05
2023-04-10T03:21:59.230Z,3.08
2023-04-10T03:22:59.216Z,3.03
2023-04-10T03:23:59.215Z,3.06
2023-04-10T03:24:59.232Z,3.05
2023-04-10T03:25:59.233Z,3.03
2023-04-10T03:26:59.242Z,3.03
2023-04-10T03:27:59.240Z,3.06
2023-04-10T03:28:59.247Z,3.00
2023-04-10T03:29:59.268Z,2.96
2023-04-10T03:30:59.288Z,2.97
2023-04-10T03:31:59.305Z,3.00
2023-04-10T03:32:59.273Z,2.97
2023-04-10T03:33:59.348Z,2.99
2023-04-10T03:34:59.284Z,2.89
2023-04-10T03:35:59.354Z,2.93
2023-04-10T03:36:59.326Z,2.92
2023-04-10T03:37:59.442Z,2.90
2023-04-10T03:38:59.398Z,2.87
2023-04-10T03:39:59.329Z,2.93
2023-04-10T03:40:59.328Z,2.92
2023-04-10T03:41:59.331Z,2.87
2023-04-10T03:42:59.336Z,2.85
2023-04-10T03:43:59.340Z,2.85
2023-04-10T03:44:59.349Z,2.92
2023-04-10T03:45:59.370Z,2.82
2023-04-10T03:46:59.426Z,2.93
2023-04-10T03:47:59.383Z,2.90
2023-04-10T03:48:59.376Z,2.79
2023-04-10T03:49:59.380Z,2.93
2023-04-10T03:50:59.390Z,2.93
2023-04-10T03:51:59.396Z,2.90
2023-04-10T03:52:59.430Z,2.96
2023-04-10T03:53:59.413Z,2.90
2023-04-10T03:54:59.417Z,2.99
2023-04-10T03:55:59.419Z,2.95
2023-04-10T03:56:59.436Z,3.00
2023-04-10T03:57:59.426Z,3.00
2023-04-10T03:58:59.434Z,2.90
2023-04-10T03:59:59.438Z,2.96
2023-04-10T04:00:59.454Z,2.90
2023-04-10T04:01:59.543Z,2.90
2023-04-10T04:02:59.626Z,2.90
2023-04-10T04:04:00.141Z,2.84
2023-04-10T04:04:59.529Z,2.84
2023-04-10T04:05:59.490Z,2.95
2023-04-10T04:06:59.496Z,3.00
2023-04-10T04:07:59.489Z,3.02
2023-04-10T04:08:59.519Z,2.99
2023-04-10T04:09:59.505Z,3.00
2023-04-10T04:10:59.512Z,2.90
2023-04-10T04:11:59.512Z,2.93
2023-04-10T04:12:59.521Z,2.92
2023-04-10T04:13:59.523Z,2.85
2023-04-10T04:14:59.545Z,2.89
2023-04-10T04:15:59.552Z,2.89
2023-04-10T04:16:59.599Z,2.89
2023-04-10T04:17:59.603Z,2.89
2023-04-10T04:18:59.558Z,3.05
2023-04-10T04:19:59.560Z,3.05
2023-04-10T04:20:59.575Z,3.03
2023-04-10T04:21:59.585Z,3.08
2023-04-10T04:22:59.588Z,3.05
2023-04-10T04:23:59.592Z,3.10
2023-04-10T04:24:59.610Z,3.08
2023-04-10T04:25:59.600Z,3.13
2023-04-10T04:26:59.606Z,3.10
2023-04-10T04:27:59.614Z,3.05
2023-04-10T04:28:59.616Z,3.03
2023-04-10T04:29:59.661Z,3.06
2023-04-10T04:30:59.627Z,3.05
2023-04-10T04:31:59.668Z,3.08
2023-04-10T04:32:59.738Z,3.05
2023-04-10T04:33:59.648Z,3.00
2023-04-10T04:34:59.660Z,3.05
2023-04-10T04:35:59.674Z,3.13
2023-04-10T04:36:59.685Z,3.05
2023-04-10T04:37:59.683Z,3.13
2023-04-10T04:38:59.678Z,3.03
2023-04-10T04:39:59.685Z,3.11
2023-04-10T04:40:59.710Z,3.00
2023-04-10T04:41:59.701Z,3.06
2023-04-10T04:42:59.712Z,3.05
2023-04-10T04:43:59.713Z,3.06
2023-04-10T04:44:59.714Z,3.03
2023-04-10T04:45:59.768Z,2.95
2023-04-10T04:46:59.725Z,2.96
2023-04-10T04:47:59.797Z,2.92
2023-04-10T04:48:59.749Z,2.92
2023-04-10T04:49:59.762Z,2.87
2023-04-10T04:50:59.748Z,2.90
2023-04-10T04:51:59.771Z,2.89
2023-04-10T04:52:59.763Z,2.90
2023-04-10T04:53:59.772Z,2.90
2023-04-10T04:54:59.777Z,2.92
2023-04-10T04:55:59.782Z,2.95
2023-04-10T04:56:59.808Z,2.90
2023-04-10T04:57:59.804Z,2.92
2023-04-10T04:58:59.798Z,2.93
2023-04-10T04:59:59.810Z,2.89
2023-04-10T05:00:59.822Z,2.87
2023-04-10T05:01:59.871Z,2.79
2023-04-10T05:02:59.998Z,2.74
2023-04-10T05:03:59.880Z,2.79
2023-04-10T05:04:59.833Z,2.75
2023-04-10T05:05:59.845Z,2.71
2023-04-10T05:06:59.857Z,2.78
2023-04-10T05:07:59.857Z,2.72
2023-04-10T05:08:59.869Z,2.72
2023-04-10T05:09:59.868Z,2.67
2023-04-10T05:10:59.875Z,2.75
2023-04-10T05:11:59.903Z,2.77
2023-04-10T05:12:59.904Z,2.79
2023-04-10T05:13:59.897Z,2.79
2023-04-10T05:14:59.897Z,2.67
2023-04-10T05:15:59.975Z,2.64
2023-04-10T05:17:02.170Z,2.63
2023-04-10T05:18:00.041Z,2.63
2023-04-10T05:18:59.988Z,2.66
2023-04-10T05:19:59.924Z,2.66
2023-04-10T05:20:59.929Z,2.63
2023-04-10T05:21:59.939Z,2.69
2023-04-10T05:22:59.954Z,2.63
2023-04-10T05:23:59.965Z,2.61
2023-04-10T05:24:59.951Z,2.63
2023-04-10T05:25:59.961Z,2.64
2023-04-10T05:26:59.965Z,2.63
2023-04-10T05:27:59.974Z,2.61
2023-04-10T05:29:00.005Z,2.63
2023-04-10T05:29:59.985Z,2.66
2023-04-10T05:31:00.058Z,2.69
2023-04-10T05:32:00.001Z,2.66
2023-04-10T05:33:00.032Z,2.63
2023-04-10T05:34:00.010Z,2.77
2023-04-10T05:35:00.014Z,2.77
2023-04-10T05:36:00.067Z,2.74
2023-04-10T05:37:00.034Z,2.77
2023-04-10T05:38:00.115Z,2.72
2023-04-10T05:39:00.041Z,2.72
2023-04-10T05:40:00.069Z,2.75
2023-04-10T05:41:00.052Z,2.74
2023-04-10T05:42:00.063Z,2.75
2023-04-10T05:43:00.067Z,2.77
2023-04-10T05:44:00.078Z,2.79
2023-04-10T05:45:00.173Z,2.77
2023-04-10T05:46:00.146Z,2.75
2023-04-10T05:47:00.095Z,2.78
2023-04-10T05:48:00.177Z,2.77
2023-04-10T05:49:00.121Z,2.89
2023-04-10T05:50:00.176Z,2.87
2023-04-10T05:51:00.152Z,2.79
2023-04-10T05:52:00.146Z,2.89
2023-04-10T05:53:00.139Z,2.89
2023-04-10T05:54:00.150Z,2.90
2023-04-10T05:55:00.199Z,2.87
2023-04-10T05:56:00.189Z,2.87
2023-04-10T05:57:00.148Z,2.95
2023-04-10T05:58:00.164Z,2.87
2023-04-10T05:59:00.178Z,2.87
2023-04-10T06:00:00.314Z,2.93
2023-04-10T06:01:00.196Z,2.89
2023-04-10T06:02:00.261Z,2.93
2023-04-10T06:03:00.336Z,2.89
2023-04-10T06:04:00.439Z,2.90
2023-04-10T06:05:00.245Z,2.96
2023-04-10T06:06:00.211Z,2.95
2023-04-10T06:07:00.210Z,2.97
2023-04-10T06:08:00.217Z,2.99
2023-04-10T06:09:00.222Z,2.99
2023-04-10T06:10:00.226Z,3.03
2023-04-10T06:11:00.231Z,2.96
2023-04-10T06:12:00.241Z,3.05
2023-04-10T06:13:00.247Z,2.95
2023-04-10T06:14:00.258Z,2.99
2023-04-10T06:15:00.262Z,2.92
2023-04-10T06:16:00.370Z,2.93
2023-04-10T06:17:00.287Z,2.96
2023-04-10T06:18:00.434Z,2.99
2023-04-10T06:19:00.284Z,2.97
2023-04-10T06:20:00.287Z,3.00
2023-04-10T06:21:00.313Z,2.99
2023-04-10T06:22:00.301Z,3.08
2023-04-10T06:23:00.305Z,3.08
2023-04-10T06:24:00.315Z,3.03
2023-04-10T06:25:00.324Z,3.06
2023-04-10T06:26:00.338Z,3.05
2023-04-10T06:27:00.337Z,3.15
2023-04-10T06:28:00.335Z,3.06
2023-04-10T06:29:00.346Z,3.14
2023-04-10T06:30:00.353Z,3.18
2023-04-10T06:31:00.393Z,3.21
2023-04-10T06:32:00.368Z,3.26
2023-04-10T06:33:00.420Z,3.20
2023-04-10T06:34:00.373Z,3.23
2023-04-10T06:35:00.380Z,3.26
2023-04-10T06:36:00.420Z,3.32
2023-04-10T06:37:00.396Z,3.33
2023-04-10T06:38:00.414Z,3.31
2023-04-10T06:39:00.440Z,3.39
2023-04-10T06:40:00.413Z,3.39
2023-04-10T06:41:00.421Z,3.35
2023-04-10T06:42:00.434Z,3.42
2023-04-10T06:43:00.578Z,3.45
2023-04-10T06:44:01.921Z,3.51
2023-04-10T06:45:00.477Z,3.51
2023-04-10T06:46:00.449Z,3.65
2023-04-10T06:47:00.526Z,3.68
2023-04-10T06:48:00.504Z,3.66
2023-04-10T06:49:00.484Z,3.79
2023-04-10T06:50:00.492Z,3.84
2023-04-10T06:51:00.478Z,3.83
2023-04-10T06:52:00.486Z,3.84
2023-04-10T06:53:00.492Z,3.86
2023-04-10T06:54:00.503Z,3.93
2023-04-10T06:55:00.503Z,3.93
2023-04-10T06:56:03.113Z,4.05
2023-04-10T06:57:00.517Z,3.97
2023-04-10T06:58:00.524Z,3.98
2023-04-10T06:59:00.528Z,4.08
2023-04-10T07:00:00.543Z,4.11
2023-04-10T07:01:00.584Z,4.11
2023-04-10T07:02:00.610Z,4.18
2023-04-10T07:03:00.604Z,4.15
2023-04-10T07:04:00.633Z,4.30
2023-04-10T07:05:00.584Z,4.34
2023-04-10T07:06:00.589Z,4.60
2023-04-10T07:07:00.580Z,4.72
2023-04-10T07:08:00.594Z,4.80
2023-04-10T07:09:00.606Z,4.92
2023-04-10T07:10:00.645Z,5.02
2023-04-10T07:11:00.620Z,5.03
2023-04-10T07:12:00.621Z,4.94
2023-04-10T07:13:00.650Z,5.12
2023-04-10T07:14:00.626Z,5.17
2023-04-10T07:15:00.645Z,5.33
2023-04-10T07:16:00.694Z,5.46
2023-04-10T07:17:00.649Z,5.48
2023-04-10T07:18:00.697Z,5.48
2023-04-10T07:19:00.658Z,5.64
2023-04-10T07:20:00.681Z,5.65
2023-04-10T07:21:00.694Z,5.53
2023-04-10T07:22:00.696Z,5.40
2023-04-10T07:23:00.888Z,5.30
2023-04-10T07:24:00.696Z,5.31
2023-04-10T07:25:00.700Z,5.38
2023-04-10T07:26:00.706Z,5.38
2023-04-10T07:27:00.711Z,5.30
2023-04-10T07:28:00.730Z,5.31
2023-04-10T07:29:00.733Z,5.43
2023-04-10T07:30:00.736Z,5.49
2023-04-10T07:31:00.741Z,5.45
2023-04-10T07:32:00.832Z,5.53
2023-04-10T07:33:00.995Z,5.58
2023-04-10T07:34:00.758Z,5.63
2023-04-10T07:35:00.775Z,5.65
2023-04-10T07:36:00.787Z,5.74
2023-04-10T07:37:00.814Z,5.67
2023-04-10T07:38:00.786Z,5.60
2023-04-10T07:39:00.791Z,5.75
2023-04-10T07:40:00.808Z,6.06
2023-04-10T07:41:00.815Z,6.09
2023-04-10T07:42:00.835Z,6.21
2023-04-10T07:43:00.817Z,6.06
2023-04-10T07:44:00.832Z,6.17
2023-04-10T07:45:00.839Z,6.09
2023-04-10T07:46:00.885Z,5.89
2023-04-10T07:47:00.859Z,6.01
2023-04-10T07:48:00.913Z,6.14
2023-04-10T07:49:00.871Z,6.22
2023-04-10T07:50:00.868Z,6.43
2023-04-10T07:51:00.877Z,6.22
2023-04-10T07:52:00.889Z,5.90
2023-04-10T07:53:00.917Z,5.85
2023-04-10T07:54:00.898Z,6.09
2023-04-10T07:55:00.902Z,6.28
2023-04-10T07:56:00.918Z,6.36
2023-04-10T07:57:00.920Z,6.43
2023-04-10T07:58:00.933Z,6.34
2023-04-10T07:59:00.947Z,6.36
2023-04-10T08:00:00.957Z,6.48
2023-04-10T08:01:00.947Z,6.33
2023-04-10T08:02:01.058Z,6.22
2023-04-10T08:03:01.367Z,6.25
2023-04-10T08:04:03.860Z,6.27
2023-04-10T08:05:01.201Z,6.21
2023-04-10T08:06:00.994Z,6.31
2023-04-10T08:07:00.990Z,6.40
2023-04-10T08:08:00.999Z,6.37
2023-04-10T08:09:01.024Z,6.48
2023-04-10T08:10:01.017Z,6.69
2023-04-10T08:11:01.023Z,6.85
2023-04-10T08:12:01.051Z,6.84
2023-04-10T08:13:01.057Z,6.67
2023-04-10T08:14:01.088Z,6.79
2023-04-10T08:15:01.064Z,6.95
2023-04-10T08:16:01.067Z,7.02
2023-04-10T08:17:01.103Z,7.20
2023-04-10T08:18:01.105Z,7.27
2023-04-10T08:19:01.092Z,7.17
2023-04-10T08:20:01.104Z,7.21
2023-04-10T08:21:01.100Z,7.24
2023-04-10T08:22:01.110Z,7.25
2023-04-10T08:23:16.546Z,7.15
2023-04-10T08:24:01.128Z,7.20
2023-04-10T08:25:01.146Z,7.12
2023-04-10T08:26:01.147Z,7.21
2023-04-10T08:27:01.133Z,7.23
2023-04-10T08:28:01.152Z,7.13
2023-04-10T08:29:01.150Z,7.34
2023-04-10T08:30:01.183Z,7.39
2023-04-10T08:31:01.193Z,7.25
2023-04-10T08:32:01.260Z,7.21
2023-04-10T08:33:01.235Z,7.09
2023-04-10T08:34:01.198Z,6.97
2023-04-10T08:35:01.215Z,7.21
2023-04-10T08:36:01.224Z,7.27
2023-04-10T08:37:01.218Z,7.32
2023-04-10T08:38:13.427Z,7.45
2023-04-10T08:39:01.237Z,7.55
2023-04-10T08:40:01.239Z,7.49
2023-04-10T08:41:01.273Z,7.67
2023-04-10T08:42:01.255Z,8.11
2023-04-10T08:43:01.280Z,7.80
2023-04-10T08:44:01.269Z,7.79
2023-04-10T08:45:01.285Z,8.00
2023-04-10T08:46:01.322Z,7.63
2023-04-10T08:47:01.317Z,7.58
2023-04-10T08:48:01.318Z,7.57
2023-04-10T08:49:01.366Z,7.57
2023-04-10T08:50:01.335Z,7.48
2023-04-10T08:51:01.337Z,7.27
2023-04-10T08:52:01.338Z,7.24
2023-04-10T08:53:01.348Z,7.21
2023-04-10T08:54:01.358Z,7.32
2023-04-10T08:55:01.365Z,7.55
2023-04-10T08:56:01.368Z,7.49
2023-04-10T08:57:01.410Z,7.21
2023-04-10T08:58:01.965Z,7.30
2023-04-10T08:59:01.406Z,7.61
2023-04-10T09:00:06.767Z,7.60
2023-04-10T09:01:01.413Z,7.82
2023-04-10T09:02:01.482Z,7.80
2023-04-10T09:03:01.503Z,8.02
2023-04-10T09:04:01.714Z,8.19
2023-04-10T09:05:01.446Z,8.19
2023-04-10T09:06:01.449Z,8.15
2023-04-10T09:07:01.465Z,8.15
2023-04-10T09:08:01.468Z,8.19
2023-04-10T09:10:01.491Z,8.11
2023-04-10T09:11:01.499Z,8.12
2023-04-10T09:12:01.867Z,8.16
2023-04-10T09:13:01.533Z,8.18
2023-04-10T09:14:01.525Z,8.50
2023-04-10T09:15:01.530Z,8.41
2023-04-10T09:16:01.609Z,8.43
2023-04-10T09:17:01.550Z,8.44
2023-04-10T09:18:01.691Z,8.92
2023-04-10T09:19:01.577Z,8.98
2023-04-10T09:20:01.576Z,8.73
2023-04-10T09:21:01.582Z,9.02
2023-04-10T09:22:01.589Z,8.96
2023-04-10T09:23:01.600Z,9.23
2023-04-10T09:24:01.626Z,9.23
2023-04-10T09:25:01.629Z,9.17
2023-04-10T09:26:01.625Z,9.23
2023-04-10T09:27:01.662Z,8.80
2023-04-10T09:28:01.649Z,8.70
2023-04-10T09:29:01.732Z,8.73
2023-04-10T09:30:01.658Z,9.10
2023-04-10T09:31:01.701Z,8.70
2023-04-10T09:32:01.683Z,8.89
2023-04-10T09:33:02.920Z,8.96
2023-04-10T09:34:01.698Z,8.96
2023-04-10T09:35:01.719Z,8.84
2023-04-10T09:36:01.773Z,8.65
2023-04-10T09:37:01.823Z,8.80
2023-04-10T09:38:01.818Z,8.87
2023-04-10T09:39:01.754Z,8.94
2023-04-10T09:40:01.856Z,9.46
2023-04-10T09:41:01.771Z,9.33
2023-04-10T09:42:01.768Z,9.33
2023-04-10T09:43:01.782Z,9.54
2023-04-10T09:44:01.793Z,9.53
2023-04-10T09:45:01.855Z,9.43
2023-04-10T09:46:01.810Z,9.56
2023-04-10T09:47:01.856Z,9.76
2023-04-10T09:48:01.904Z,10.12
2023-04-10T09:49:01.877Z,10.36
2023-04-10T09:50:01.857Z,10.47
2023-04-10T09:51:01.854Z,10.64
2023-04-10T09:52:01.869Z,10.52
2023-04-10T09:53:01.881Z,10.67
2023-04-10T09:54:01.897Z,10.94
2023-04-10T09:55:01.896Z,11.06
2023-04-10T09:56:01.902Z,10.76
2023-04-10T09:57:01.918Z,10.99
2023-04-10T09:58:01.920Z,11.00
2023-04-10T09:59:01.948Z,10.92
2023-04-10T10:00:01.966Z,11.00
2023-04-10T10:01:01.997Z,11.07
2023-04-10T10:02:02.037Z,11.11
2023-04-10T10:03:02.070Z,10.91
2023-04-10T10:04:02.001Z,10.84
2023-04-10T10:05:02.052Z,10.92
2023-04-10T10:06:02.004Z,11.02
2023-04-10T10:07:02.020Z,10.97
2023-04-10T10:08:02.051Z,11.10
2023-04-10T10:09:02.069Z,11.07
2023-04-10T10:10:02.056Z,11.14
2023-04-10T10:11:02.062Z,11.02
2023-04-10T10:12:02.105Z,11.00
2023-04-10T10:13:02.094Z,10.92
2023-04-10T10:14:02.118Z,10.94
2023-04-10T10:15:02.156Z,10.81
2023-04-10T10:16:02.186Z,10.84
2023-04-10T10:17:02.277Z,10.99
2023-04-10T10:18:02.185Z,11.15
2023-04-10T10:19:02.144Z,11.14
2023-04-10T10:20:02.162Z,11.39
2023-04-10T10:21:02.171Z,11.06
2023-04-10T10:22:02.188Z,11.35
2023-04-10T10:23:02.192Z,11.27
2023-04-10T10:24:02.248Z,11.62
2023-04-10T10:25:02.212Z,11.79
2023-04-10T10:26:03.744Z,11.85
2023-04-10T10:27:02.269Z,11.46
2023-04-10T10:28:02.277Z,11.73
2023-04-10T10:29:02.260Z,11.86
2023-04-10T10:30:05.493Z,12.02
2023-04-10T10:31:02.292Z,12.16
2023-04-10T10:32:02.331Z,11.44
2023-04-10T10:33:02.371Z,11.36
2023-04-10T10:34:02.311Z,11.60
2023-04-10T10:35:02.328Z,11.67
2023-04-10T10:36:02.342Z,11.79
2023-04-10T10:37:02.358Z,11.15
2023-04-10T10:38:02.376Z,10.82
2023-04-10T10:39:02.377Z,10.66
2023-04-10T10:40:02.422Z,10.97
2023-04-10T10:41:02.398Z,10.89
2023-04-10T10:42:02.430Z,10.92
2023-04-10T10:43:02.428Z,10.63
2023-04-10T10:44:02.447Z,10.99
2023-04-10T10:45:02.463Z,10.97
2023-04-10T10:46:02.590Z,11.42
2023-04-10T10:47:02.469Z,11.42
2023-04-10T10:48:02.508Z,11.64
2023-04-10T10:49:02.563Z,11.76
2023-04-10T10:50:02.513Z,11.62
2023-04-10T10:51:02.515Z,11.44
2023-04-10T10:52:02.523Z,10.91
2023-04-10T10:53:02.564Z,10.78
2023-04-10T10:54:02.549Z,10.68
2023-04-10T10:55:02.564Z,10.51
2023-04-10T10:56:02.572Z,10.82
2023-04-10T10:57:02.616Z,10.79
2023-04-10T10:58:02.616Z,10.48
2023-04-10T10:59:02.621Z,11.04
2023-04-10T11:00:02.634Z,11.46
2023-04-10T11:01:02.688Z,11.95
2023-04-10T11:02:02.801Z,12.27
2023-04-10T11:03:02.895Z,12.52
2023-04-10T11:04:03.001Z,12.68
2023-04-10T11:05:02.769Z,12.97
2023-04-10T11:06:02.729Z,13.22
2023-04-10T11:07:02.743Z,13.33
2023-04-10T11:08:02.790Z,13.29
2023-04-10T11:09:02.735Z,13.36
2023-04-10T11:10:02.849Z,13.05
2023-04-10T11:11:02.827Z,13.07
2023-04-10T11:12:02.763Z,13.14
2023-04-10T11:13:02.778Z,13.08
2023-04-10T11:14:02.784Z,12.87
2023-04-10T11:15:02.940Z,13.07
2023-04-10T11:16:02.822Z,12.97
2023-04-10T11:17:02.944Z,12.70
2023-04-10T11:18:02.883Z,12.62
2023-04-10T11:19:13.363Z,12.65
2023-04-10T11:20:02.887Z,13.20
2023-04-10T11:21:02.902Z,12.46
2023-04-10T11:22:02.912Z,11.47
2023-04-10T11:23:02.912Z,11.94
2023-04-10T11:24:02.924Z,12.04
2023-04-10T11:25:03.019Z,12.20
2023-04-10T11:26:02.935Z,12.64
2023-04-10T11:27:03.042Z,13.11
2023-04-10T11:28:02.962Z,12.83
2023-04-10T11:29:02.981Z,12.71
2023-04-10T11:30:03.007Z,12.67
2023-04-10T11:31:03.021Z,12.56
2023-04-10T11:32:03.025Z,12.77
2023-04-10T11:33:03.127Z,13.23
2023-04-10T11:34:03.051Z,13.22
2023-04-10T11:35:04.839Z,13.23
2023-04-10T11:36:03.119Z,13.23
2023-04-10T11:37:03.106Z,12.47
2023-04-10T11:38:03.092Z,12.54
2023-04-10T11:39:03.100Z,12.68
2023-04-10T11:40:03.123Z,12.86
2023-04-10T11:41:03.134Z,13.11
2023-04-10T11:42:03.139Z,12.82
2023-04-10T11:43:03.153Z,12.72
2023-04-10T11:44:03.172Z,11.94
2023-04-10T11:45:03.202Z,12.37
2023-04-10T11:46:03.345Z,12.17
2023-04-10T11:47:03.217Z,11.91
2023-04-10T11:48:03.268Z,12.13
2023-04-10T11:49:03.234Z,12.35
2023-04-10T11:50:03.243Z,12.72
2023-04-10T11:51:03.266Z,12.72
2023-04-10T11:52:03.271Z,12.92
2023-04-10T11:53:03.309Z,13.11
2023-04-10T11:54:03.293Z,12.50
2023-04-10T11:55:03.317Z,12.31
2023-04-10T11:56:03.322Z,12.77
2023-04-10T11:57:03.384Z,12.87
2023-04-10T11:58:03.348Z,13.12
2023-04-10T11:59:03.364Z,12.75
2023-04-10T12:00:03.378Z,12.85
2023-04-10T12:01:03.397Z,13.14
2023-04-10T12:02:03.475Z,13.32
2023-04-10T12:03:03.585Z,13.20
2023-04-10T12:04:03.553Z,13.26
2023-04-10T12:05:03.472Z,13.60
2023-04-10T12:06:03.452Z,13.85
2023-04-10T12:07:03.487Z,14.04
2023-04-10T12:08:03.497Z,13.70
2023-04-10T12:09:03.522Z,13.29
2023-04-10T12:10:03.509Z,13.11
2023-04-10T12:11:03.528Z,13.07
2023-04-10T12:12:03.539Z,13.28
2023-04-10T12:13:03.552Z,13.39
2023-04-10T12:14:03.578Z,13.44
2023-04-10T12:15:03.576Z,13.60
2023-04-10T12:16:03.618Z,13.10
2023-04-10T12:17:03.609Z,13.25
2023-04-10T12:18:03.701Z,13.22
2023-04-10T12:19:03.651Z,13.32
2023-04-10T12:20:03.666Z,13.23
2023-04-10T12:21:04.705Z,12.89
2023-04-10T12:22:03.672Z,12.65
2023-04-10T12:23:03.687Z,12.38
2023-04-10T12:24:03.702Z,12.96
2023-04-10T12:25:03.765Z,13.32
2023-04-10T12:26:03.728Z,13.05
2023-04-10T12:27:03.743Z,12.97
2023-04-10T12:28:03.753Z,12.29
2023-04-10T12:29:03.785Z,12.35
2023-04-10T12:30:03.783Z,12.31
2023-04-10T12:31:03.843Z,12.10
2023-04-10T12:32:03.817Z,12.13
2023-04-10T12:33:03.853Z,12.02
2023-04-10T12:34:03.854Z,12.41
2023-04-10T12:35:03.855Z,12.28
2023-04-10T12:36:03.946Z,12.28
2023-04-10T12:37:03.885Z,12.05
2023-04-10T12:38:03.895Z,12.32
2023-04-10T12:39:03.912Z,12.38
2023-04-10T12:40:03.944Z,12.46
2023-04-10T12:41:03.984Z,12.52
2023-04-10T12:42:03.961Z,11.95
2023-04-10T12:43:04.012Z,11.57
2023-04-10T12:44:03.981Z,11.67
2023-04-10T12:45:03.994Z,11.88
2023-04-10T12:46:04.043Z,11.91
2023-04-10T12:47:04.020Z,12.04
2023-04-10T12:48:04.102Z,12.29
2023-04-10T12:49:04.064Z,12.42
2023-04-10T12:50:04.067Z,12.38
2023-04-10T12:51:04.180Z,12.39
2023-04-10T12:52:04.108Z,12.23
2023-04-10T12:53:04.106Z,12.54
2023-04-10T12:54:04.108Z,12.46
2023-04-10T12:55:04.127Z,12.20
2023-04-10T12:56:04.195Z,12.07
2023-04-10T12:57:04.256Z,12.29
2023-04-10T12:58:04.168Z,12.37
2023-04-10T12:59:04.174Z,12.64
2023-04-10T13:00:04.189Z,12.42
2023-04-10T13:01:04.216Z,12.17
2023-04-10T13:02:04.331Z,12.01
2023-04-10T13:03:04.453Z,12.09
2023-04-10T13:04:04.289Z,12.24
2023-04-10T13:05:04.252Z,11.99
2023-04-10T13:06:04.276Z,11.96
2023-04-10T13:07:04.280Z,11.86
2023-04-10T13:08:04.298Z,12.10
2023-04-10T13:09:04.344Z,12.19
2023-04-10T13:10:04.317Z,12.14
2023-04-10T13:11:04.326Z,11.91
2023-04-10T13:12:04.352Z,11.95
2023-04-10T13:13:04.375Z,11.80